createdAt,value
2022-12-26T00:03:28.416Z,0.00
2022-12-26T00:18:28.974Z,0.00
2022-12-26T00:33:30.153Z,0.00
2022-12-26T00:48:31.708Z,0.00
2022-12-26T01:03:32.284Z,0.00
2022-12-26T01:18:33.327Z,0.00
2022-12-26T01:33:35.934Z,0.00
2022-12-26T01:48:37.044Z,0.00
2022-12-26T02:03:37.682Z,0.00
2022-12-26T02:18:38.263Z,0.00
2022-12-26T02:33:38.924Z,0.00
2022-12-26T02:48:39.741Z,0.00
2022-12-26T03:03:40.228Z,0.00
2022-12-26T03:18:58.572Z,1.74
2022-12-26T03:33:48.952Z,4.10
2022-12-26T03:48:51.073Z,6.97
2022-12-26T04:03:52.386Z,8.20
2022-12-26T04:18:52.788Z,8.51
2022-12-26T04:33:52.945Z,7.58
2022-12-26T04:48:53.007Z,1.53
2022-12-26T05:03:53.737Z,6.14
2022-12-26T05:18:54.240Z,11.47
2022-12-26T05:33:54.863Z,6.35
2022-12-26T05:48:54.960Z,2.97
2022-12-26T06:03:56.267Z,0.00
2022-12-26T06:18:57.205Z,0.00
2022-12-26T06:33:57.915Z,1.64
2022-12-26T06:48:58.474Z,1.33
2022-12-26T07:03:59.560Z,5.12
2022-12-26T07:19:00.723Z,8.20
2022-12-26T07:34:01.292Z,9.63
2022-12-26T07:49:01.398Z,8.61
2022-12-26T08:04:02.231Z,8.30
2022-12-26T08:19:02.643Z,5.94
2022-12-26T08:34:03.276Z,5.63
2022-12-26T08:49:03.884Z,5.43
2022-12-26T09:04:04.543Z,6.87
2022-12-26T09:19:05.141Z,9.63
2022-12-26T09:34:05.784Z,14.34
2022-12-26T09:49:06.339Z,22.03
2022-12-26T10:04:06.486Z,39.64
2022-12-26T10:19:07.075Z,50.18
2022-12-26T10:34:07.714Z,64.73
2022-12-26T10:49:08.272Z,57.48
2022-12-26T11:04:08.972Z,51.03
2022-12-26T11:19:09.570Z,55.23
2022-12-26T11:34:10.150Z,66.30
2022-12-26T11:49:10.761Z,64.45
2022-12-26T12:04:12.397Z,68.45
2022-12-26T12:19:12.992Z,64.97
2022-12-26T12:34:13.704Z,64.07
2022-12-26T12:49:14.277Z,68.07
2022-12-26T13:04:14.456Z,70.50
2022-12-26T13:19:15.344Z,70.98
2022-12-26T13:34:15.989Z,73.78
2022-12-26T13:49:16.628Z,75.28
2022-12-26T14:04:17.347Z,79.99
2022-12-26T14:19:19.387Z,82.86
2022-12-26T14:34:19.763Z,85.36
2022-12-26T14:49:20.351Z,85.66
2022-12-26T15:04:20.955Z,83.86
2022-12-26T15:19:21.121Z,89.76
2022-12-26T15:34:22.192Z,89.90
2022-12-26T15:49:22.803Z,89.19
2022-12-26T16:04:23.102Z,85.60
2022-12-26T16:19:24.534Z,78.16
2022-12-26T16:34:25.024Z,67.90
2022-12-26T16:49:25.648Z,63.65
2022-12-26T17:04:26.507Z,55.57
2022-12-26T17:19:27.183Z,45.62
2022-12-26T17:34:29.044Z,49.04
2022-12-26T17:49:31.048Z,55.21
2022-12-26T18:04:31.572Z,57.08
2022-12-26T18:19:33.522Z,66.24
2022-12-26T18:34:35.318Z,99.99
2022-12-26T18:49:38.226Z,99.99
2022-12-26T19:04:40.168Z,99.99
2022-12-26T19:19:40.798Z,99.99
2022-12-26T19:34:41.439Z,99.99
2022-12-26T19:49:42.065Z,98.84
2022-12-26T20:04:43.172Z,97.81
2022-12-26T20:19:45.350Z,99.99
2022-12-26T20:34:45.164Z,99.99
2022-12-26T20:49:45.816Z,99.18
2022-12-26T21:04:47.311Z,98.19
2022-12-26T21:19:48.830Z,99.99
2022-12-26T21:34:49.426Z,99.99
2022-12-26T21:49:50.061Z,99.99
2022-12-26T22:04:51.971Z,99.99
2022-12-26T22:19:52.555Z,99.99
2022-12-26T22:34:53.262Z,99.99
2022-12-26T22:49:53.793Z,99.99
2022-12-26T23:04:53.912Z,99.99
2022-12-26T23:19:54.997Z,99.99
2022-12-26T23:34:55.661Z,99.99
2022-12-26T23:49:56.747Z,99.99
